sensor_id;sensor_type;location;lat;lon;timestamp;P1;durP1;ratioP1;P2;durP2;ratioP2
5209;SDS011;2624;48.048;11.706;2022-08-01T00:02:53;1.93;;;1.53;;
5209;SDS011;2624;48.048;11.706;2022-08-01T00:07:55;1.83;;;1.73;;
5209;SDS011;2624;48.048;11.706;2022-08-01T00:12:58;2.97;;;1.80;;
5209;SDS011;2624;48.048;11.706;2022-08-01T00:18:00;1.40;;;1.40;;
5209;SDS011;2624;48.048;11.706;2022-08-01T00:23:02;2.20;;;1.50;;
5209;SDS011;2624;48.048;11.706;2022-08-01T00:28:05;1.67;;;1.57;;
5209;SDS011;2624;48.048;11.706;2022-08-01T00:33:08;1.90;;;1.80;;
5209;SDS011;2624;48.048;11.706;2022-08-01T00:38:10;3.40;;;1.60;;
5209;SDS011;2624;48.048;11.706;2022-08-01T00:43:13;1.40;;;1.40;;
5209;SDS011;2624;48.048;11.706;2022-08-01T00:48:15;1.70;;;1.53;;
5209;SDS011;2624;48.048;11.706;2022-08-01T00:53:17;1.40;;;1.40;;
5209;SDS011;2624;48.048;11.706;2022-08-01T00:58:20;2.30;;;1.47;;
5209;SDS011;2624;48.048;11.706;2022-08-01T01:03:22;1.60;;;1.60;;
5209;SDS011;2624;48.048;11.706;2022-08-01T01:08:26;2.20;;;1.73;;
5209;SDS011;2624;48.048;11.706;2022-08-01T01:13:37;1.23;;;1.23;;
5209;SDS011;2624;48.048;11.706;2022-08-01T01:18:45;1.70;;;1.70;;
5209;SDS011;2624;48.048;11.706;2022-08-01T01:23:53;1.40;;;1.37;;
5209;SDS011;2624;48.048;11.706;2022-08-01T01:29:05;1.50;;;1.50;;
5209;SDS011;2624;48.048;11.706;2022-08-01T01:34:12;1.47;;;1.47;;
5209;SDS011;2624;48.048;11.706;2022-08-01T01:39:16;1.97;;;1.87;;
5209;SDS011;2624;48.048;11.706;2022-08-01T01:44:20;2.73;;;1.60;;
5209;SDS011;2624;48.048;11.706;2022-08-01T01:49:23;1.80;;;1.80;;
5209;SDS011;2624;48.048;11.706;2022-08-01T01:54:28;1.60;;;1.50;;
5209;SDS011;2624;48.048;11.706;2022-08-01T01:59:32;3.00;;;1.80;;
5209;SDS011;2624;48.048;11.706;2022-08-01T02:04:38;1.70;;;1.60;;
5209;SDS011;2624;48.048;11.706;2022-08-01T02:09:42;2.13;;;1.53;;
5209;SDS011;2624;48.048;11.706;2022-08-01T02:14:46;1.63;;;1.50;;
5209;SDS011;2624;48.048;11.706;2022-08-01T02:19:51;3.10;;;1.37;;
5209;SDS011;2624;48.048;11.706;2022-08-01T02:24:54;3.03;;;1.90;;
5209;SDS011;2624;48.048;11.706;2022-08-01T02:30:03;1.70;;;1.70;;
5209;SDS011;2624;48.048;11.706;2022-08-01T02:35:07;1.97;;;1.50;;
5209;SDS011;2624;48.048;11.706;2022-08-01T02:40:14;1.60;;;1.60;;
5209;SDS011;2624;48.048;11.706;2022-08-01T02:45:20;1.80;;;1.70;;
5209;SDS011;2624;48.048;11.706;2022-08-01T02:50:25;1.37;;;1.23;;
5209;SDS011;2624;48.048;11.706;2022-08-01T02:55:29;3.70;;;1.60;;
5209;SDS011;2624;48.048;11.706;2022-08-01T03:00:35;1.87;;;1.80;;
5209;SDS011;2624;48.048;11.706;2022-08-01T03:05:37;2.40;;;1.83;;
5209;SDS011;2624;48.048;11.706;2022-08-01T03:10:41;1.60;;;1.50;;
5209;SDS011;2624;48.048;11.706;2022-08-01T03:15:46;1.30;;;1.30;;
5209;SDS011;2624;48.048;11.706;2022-08-01T03:20:50;2.00;;;1.87;;
5209;SDS011;2624;48.048;11.706;2022-08-01T03:25:53;1.50;;;1.50;;
5209;SDS011;2624;48.048;11.706;2022-08-01T03:30:57;1.43;;;1.43;;
5209;SDS011;2624;48.048;11.706;2022-08-01T03:36:00;2.00;;;1.90;;
5209;SDS011;2624;48.048;11.706;2022-08-01T03:41:04;1.57;;;1.47;;
5209;SDS011;2624;48.048;11.706;2022-08-01T03:46:16;1.60;;;1.50;;
5209;SDS011;2624;48.048;11.706;2022-08-01T03:51:21;1.77;;;1.70;;
5209;SDS011;2624;48.048;11.706;2022-08-01T03:56:24;1.60;;;1.60;;
5209;SDS011;2624;48.048;11.706;2022-08-01T04:01:29;1.80;;;1.70;;
5209;SDS011;2624;48.048;11.706;2022-08-01T04:06:33;2.63;;;1.50;;
5209;SDS011;2624;48.048;11.706;2022-08-01T04:11:38;1.53;;;1.43;;
5209;SDS011;2624;48.048;11.706;2022-08-01T04:16:42;5.73;;;1.87;;
5209;SDS011;2624;48.048;11.706;2022-08-01T04:21:44;2.40;;;2.03;;
5209;SDS011;2624;48.048;11.706;2022-08-01T04:26:46;1.83;;;1.73;;
5209;SDS011;2624;48.048;11.706;2022-08-01T04:31:52;1.60;;;1.50;;
5209;SDS011;2624;48.048;11.706;2022-08-01T04:36:55;1.93;;;1.63;;
5209;SDS011;2624;48.048;11.706;2022-08-01T04:41:58;6.73;;;1.70;;
5209;SDS011;2624;48.048;11.706;2022-08-01T04:47:05;2.20;;;2.10;;
5209;SDS011;2624;48.048;11.706;2022-08-01T04:52:07;1.60;;;1.60;;
5209;SDS011;2624;48.048;11.706;2022-08-01T04:57:09;2.00;;;1.90;;
5209;SDS011;2624;48.048;11.706;2022-08-01T05:02:13;2.60;;;1.97;;
5209;SDS011;2624;48.048;11.706;2022-08-01T05:07:16;2.37;;;2.20;;
5209;SDS011;2624;48.048;11.706;2022-08-01T05:12:18;2.10;;;2.00;;
5209;SDS011;2624;48.048;11.706;2022-08-01T05:17:22;3.93;;;1.67;;
5209;SDS011;2624;48.048;11.706;2022-08-01T05:22:23;1.90;;;1.80;;
5209;SDS011;2624;48.048;11.706;2022-08-01T05:27:25;2.00;;;1.90;;
5209;SDS011;2624;48.048;11.706;2022-08-01T05:32:28;2.40;;;2.20;;
5209;SDS011;2624;48.048;11.706;2022-08-01T05:37:31;2.23;;;2.13;;
5209;SDS011;2624;48.048;11.706;2022-08-01T05:42:33;3.23;;;1.80;;
5209;SDS011;2624;48.048;11.706;2022-08-01T05:47:36;1.63;;;1.60;;
5209;SDS011;2624;48.048;11.706;2022-08-01T05:52:38;1.97;;;1.87;;
5209;SDS011;2624;48.048;11.706;2022-08-01T05:57:40;4.10;;;1.70;;
5209;SDS011;2624;48.048;11.706;2022-08-01T06:02:43;1.93;;;1.80;;
5209;SDS011;2624;48.048;11.706;2022-08-01T06:07:44;1.70;;;1.70;;
5209;SDS011;2624;48.048;11.706;2022-08-01T06:12:47;1.90;;;1.80;;
5209;SDS011;2624;48.048;11.706;2022-08-01T06:17:50;1.93;;;1.60;;
5209;SDS011;2624;48.048;11.706;2022-08-01T06:22:51;2.00;;;1.90;;
5209;SDS011;2624;48.048;11.706;2022-08-01T06:27:54;2.60;;;1.73;;
5209;SDS011;2624;48.048;11.706;2022-08-01T06:32:57;4.53;;;2.33;;
5209;SDS011;2624;48.048;11.706;2022-08-01T06:38:00;1.97;;;1.87;;
5209;SDS011;2624;48.048;11.706;2022-08-01T06:43:03;3.50;;;2.10;;
5209;SDS011;2624;48.048;11.706;2022-08-01T06:48:06;2.80;;;2.00;;
5209;SDS011;2624;48.048;11.706;2022-08-01T06:53:08;2.13;;;2.03;;
5209;SDS011;2624;48.048;11.706;2022-08-01T06:58:09;1.63;;;1.53;;
5209;SDS011;2624;48.048;11.706;2022-08-01T07:03:12;2.10;;;2.00;;
5209;SDS011;2624;48.048;11.706;2022-08-01T07:08:14;3.80;;;2.30;;
5209;SDS011;2624;48.048;11.706;2022-08-01T07:13:16;1.80;;;1.80;;
5209;SDS011;2624;48.048;11.706;2022-08-01T07:18:22;2.83;;;1.87;;
5209;SDS011;2624;48.048;11.706;2022-08-01T07:23:24;2.40;;;2.30;;
5209;SDS011;2624;48.048;11.706;2022-08-01T07:28:26;4.10;;;2.37;;
5209;SDS011;2624;48.048;11.706;2022-08-01T07:33:29;1.73;;;1.63;;
5209;SDS011;2624;48.048;11.706;2022-08-01T07:38:30;2.50;;;2.30;;
5209;SDS011;2624;48.048;11.706;2022-08-01T07:43:32;1.90;;;1.80;;
5209;SDS011;2624;48.048;11.706;2022-08-01T07:48:37;2.60;;;2.40;;
5209;SDS011;2624;48.048;11.706;2022-08-01T07:53:38;2.00;;;1.90;;
5209;SDS011;2624;48.048;11.706;2022-08-01T07:58:40;12.03;;;2.17;;
5209;SDS011;2624;48.048;11.706;2022-08-01T08:03:43;3.10;;;1.90;;
5209;SDS011;2624;48.048;11.706;2022-08-01T08:08:45;2.23;;;2.13;;
5209;SDS011;2624;48.048;11.706;2022-08-01T08:13:47;9.83;;;2.33;;
5209;SDS011;2624;48.048;11.706;2022-08-01T08:18:50;2.90;;;1.60;;
5209;SDS011;2624;48.048;11.706;2022-08-01T08:23:52;6.40;;;2.23;;
5209;SDS011;2624;48.048;11.706;2022-08-01T08:29:11;2.60;;;2.50;;
5209;SDS011;2624;48.048;11.706;2022-08-01T08:34:14;2.83;;;2.63;;
5209;SDS011;2624;48.048;11.706;2022-08-01T08:39:16;1.97;;;1.87;;
5209;SDS011;2624;48.048;11.706;2022-08-01T08:44:18;2.70;;;2.50;;
5209;SDS011;2624;48.048;11.706;2022-08-01T08:49:23;2.30;;;2.20;;
5209;SDS011;2624;48.048;11.706;2022-08-01T08:54:26;2.27;;;2.13;;
5209;SDS011;2624;48.048;11.706;2022-08-01T08:59:30;2.00;;;1.90;;
5209;SDS011;2624;48.048;11.706;2022-08-01T09:04:33;2.27;;;2.13;;
5209;SDS011;2624;48.048;11.706;2022-08-01T09:09:36;2.07;;;1.97;;
5209;SDS011;2624;48.048;11.706;2022-08-01T09:14:43;4.17;;;2.27;;
5209;SDS011;2624;48.048;11.706;2022-08-01T09:19:48;2.43;;;2.03;;
5209;SDS011;2624;48.048;11.706;2022-08-01T09:24:59;1.60;;;1.50;;
5209;SDS011;2624;48.048;11.706;2022-08-01T09:30:11;1.43;;;1.33;;
5209;SDS011;2624;48.048;11.706;2022-08-01T09:35:26;0.90;;;0.90;;
5209;SDS011;2624;48.048;11.706;2022-08-01T09:40:43;1.97;;;1.87;;
5209;SDS011;2624;48.048;11.706;2022-08-01T09:45:45;2.30;;;1.80;;
5209;SDS011;2624;48.048;11.706;2022-08-01T09:50:50;2.80;;;2.17;;
5209;SDS011;2624;48.048;11.706;2022-08-01T09:55:54;1.90;;;1.90;;
5209;SDS011;2624;48.048;11.706;2022-08-01T10:01:09;2.40;;;1.70;;
5209;SDS011;2624;48.048;11.706;2022-08-01T10:06:19;4.37;;;1.43;;
5209;SDS011;2624;48.048;11.706;2022-08-01T10:11:22;0.83;;;0.83;;
5209;SDS011;2624;48.048;11.706;2022-08-01T10:16:25;1.67;;;1.60;;
5209;SDS011;2624;48.048;11.706;2022-08-01T10:21:29;1.63;;;1.10;;
5209;SDS011;2624;48.048;11.706;2022-08-01T10:26:33;2.23;;;1.23;;
5209;SDS011;2624;48.048;11.706;2022-08-01T10:31:37;1.50;;;1.50;;
5209;SDS011;2624;48.048;11.706;2022-08-01T10:36:40;8.83;;;1.30;;
5209;SDS011;2624;48.048;11.706;2022-08-01T10:41:43;1.23;;;1.13;;
5209;SDS011;2624;48.048;11.706;2022-08-01T10:46:46;1.30;;;1.30;;
5209;SDS011;2624;48.048;11.706;2022-08-01T10:51:52;1.70;;;1.47;;
5209;SDS011;2624;48.048;11.706;2022-08-01T10:56:54;1.60;;;1.50;;
5209;SDS011;2624;48.048;11.706;2022-08-01T11:02:01;3.63;;;1.13;;
5209;SDS011;2624;48.048;11.706;2022-08-01T11:07:06;1.00;;;1.00;;
5209;SDS011;2624;48.048;11.706;2022-08-01T11:12:10;1.40;;;1.40;;
5209;SDS011;2624;48.048;11.706;2022-08-01T11:28:27;1.63;;;1.40;;
5209;SDS011;2624;48.048;11.706;2022-08-01T11:33:49;1.30;;;1.30;;
5209;SDS011;2624;48.048;11.706;2022-08-01T11:39:11;1.37;;;1.23;;
5209;SDS011;2624;48.048;11.706;2022-08-01T11:44:22;2.60;;;2.50;;
5209;SDS011;2624;48.048;11.706;2022-08-01T11:49:28;1.50;;;1.40;;
5209;SDS011;2624;48.048;11.706;2022-08-01T11:54:33;1.73;;;1.63;;
5209;SDS011;2624;48.048;11.706;2022-08-01T11:59:38;1.00;;;1.00;;
5209;SDS011;2624;48.048;11.706;2022-08-01T12:04:46;1.53;;;1.43;;
5209;SDS011;2624;48.048;11.706;2022-08-01T12:09:56;1.93;;;1.30;;
5209;SDS011;2624;48.048;11.706;2022-08-01T12:15:00;2.03;;;1.50;;
5209;SDS011;2624;48.048;11.706;2022-08-01T12:20:05;0.83;;;0.83;;
5209;SDS011;2624;48.048;11.706;2022-08-01T12:25:08;2.10;;;1.20;;
5209;SDS011;2624;48.048;11.706;2022-08-01T12:30:13;2.50;;;2.33;;
5209;SDS011;2624;48.048;11.706;2022-08-01T12:35:17;2.00;;;1.90;;
5209;SDS011;2624;48.048;11.706;2022-08-01T12:40:23;1.83;;;1.73;;
5209;SDS011;2624;48.048;11.706;2022-08-01T12:45:28;5.37;;;2.33;;
5209;SDS011;2624;48.048;11.706;2022-08-01T12:50:32;4.63;;;1.70;;
5209;SDS011;2624;48.048;11.706;2022-08-01T12:55:41;1.20;;;1.00;;
5209;SDS011;2624;48.048;11.706;2022-08-01T13:00:48;4.57;;;1.00;;
5209;SDS011;2624;48.048;11.706;2022-08-01T13:05:51;1.30;;;1.20;;
5209;SDS011;2624;48.048;11.706;2022-08-01T13:10:59;0.80;;;0.80;;
5209;SDS011;2624;48.048;11.706;2022-08-01T13:16:03;2.80;;;1.33;;
5209;SDS011;2624;48.048;11.706;2022-08-01T13:21:08;3.53;;;1.20;;
5209;SDS011;2624;48.048;11.706;2022-08-01T13:26:11;4.63;;;1.03;;
5209;SDS011;2624;48.048;11.706;2022-08-01T13:31:14;2.93;;;1.30;;
5209;SDS011;2624;48.048;11.706;2022-08-01T13:36:16;1.27;;;1.17;;
5209;SDS011;2624;48.048;11.706;2022-08-01T13:41:18;1.47;;;1.33;;
5209;SDS011;2624;48.048;11.706;2022-08-01T13:46:21;1.80;;;1.20;;
5209;SDS011;2624;48.048;11.706;2022-08-01T13:51:23;2.63;;;0.93;;
5209;SDS011;2624;48.048;11.706;2022-08-01T13:56:25;0.67;;;0.67;;
5209;SDS011;2624;48.048;11.706;2022-08-01T14:01:29;0.70;;;0.70;;
5209;SDS011;2624;48.048;11.706;2022-08-01T14:06:31;0.60;;;0.60;;
5209;SDS011;2624;48.048;11.706;2022-08-01T14:11:34;1.17;;;1.07;;
5209;SDS011;2624;48.048;11.706;2022-08-01T14:16:38;1.20;;;1.00;;
5209;SDS011;2624;48.048;11.706;2022-08-01T14:21:39;1.00;;;0.90;;
5209;SDS011;2624;48.048;11.706;2022-08-01T14:26:41;0.87;;;0.87;;
5209;SDS011;2624;48.048;11.706;2022-08-01T14:31:44;1.53;;;0.70;;
5209;SDS011;2624;48.048;11.706;2022-08-01T14:36:46;1.20;;;1.10;;
5209;SDS011;2624;48.048;11.706;2022-08-01T14:41:47;0.80;;;0.80;;
5209;SDS011;2624;48.048;11.706;2022-08-01T14:46:51;2.83;;;0.80;;
5209;SDS011;2624;48.048;11.706;2022-08-01T14:51:52;0.80;;;0.80;;
5209;SDS011;2624;48.048;11.706;2022-08-01T14:56:54;1.00;;;1.00;;
5209;SDS011;2624;48.048;11.706;2022-08-01T15:01:57;0.90;;;0.90;;
5209;SDS011;2624;48.048;11.706;2022-08-01T15:06:59;0.60;;;0.60;;
5209;SDS011;2624;48.048;11.706;2022-08-01T15:12:01;0.70;;;0.70;;
5209;SDS011;2624;48.048;11.706;2022-08-01T15:17:04;1.00;;;1.00;;
5209;SDS011;2624;48.048;11.706;2022-08-01T15:22:07;1.00;;;1.00;;
5209;SDS011;2624;48.048;11.706;2022-08-01T15:27:09;1.63;;;1.00;;
5209;SDS011;2624;48.048;11.706;2022-08-01T15:32:13;3.93;;;2.20;;
5209;SDS011;2624;48.048;11.706;2022-08-01T15:37:15;5.40;;;0.80;;
5209;SDS011;2624;48.048;11.706;2022-08-01T15:42:17;1.37;;;1.10;;
5209;SDS011;2624;48.048;11.706;2022-08-01T15:47:21;0.83;;;0.83;;
5209;SDS011;2624;48.048;11.706;2022-08-01T15:52:23;0.90;;;0.90;;
5209;SDS011;2624;48.048;11.706;2022-08-01T15:57:25;1.00;;;1.00;;
5209;SDS011;2624;48.048;11.706;2022-08-01T16:02:28;2.43;;;1.77;;
5209;SDS011;2624;48.048;11.706;2022-08-01T16:07:30;8.23;;;1.97;;
5209;SDS011;2624;48.048;11.706;2022-08-01T16:12:31;1.10;;;0.97;;
5209;SDS011;2624;48.048;11.706;2022-08-01T16:17:34;1.63;;;1.33;;
5209;SDS011;2624;48.048;11.706;2022-08-01T16:22:36;5.40;;;2.00;;
5209;SDS011;2624;48.048;11.706;2022-08-01T16:27:38;2.03;;;1.80;;
5209;SDS011;2624;48.048;11.706;2022-08-01T16:32:41;1.43;;;1.33;;
5209;SDS011;2624;48.048;11.706;2022-08-01T16:37:43;5.90;;;1.67;;
5209;SDS011;2624;48.048;11.706;2022-08-01T16:42:45;1.30;;;1.30;;
5209;SDS011;2624;48.048;11.706;2022-08-01T16:47:48;1.40;;;1.20;;
5209;SDS011;2624;48.048;11.706;2022-08-01T16:52:50;2.23;;;1.53;;
5209;SDS011;2624;48.048;11.706;2022-08-01T16:57:52;1.60;;;1.53;;
5209;SDS011;2624;48.048;11.706;2022-08-01T17:02:55;1.60;;;1.40;;
5209;SDS011;2624;48.048;11.706;2022-08-01T17:07:56;4.50;;;1.63;;
5209;SDS011;2624;48.048;11.706;2022-08-01T17:12:58;4.60;;;1.47;;
5209;SDS011;2624;48.048;11.706;2022-08-01T17:18:02;1.77;;;1.67;;
5209;SDS011;2624;48.048;11.706;2022-08-01T17:23:04;2.13;;;1.87;;
5209;SDS011;2624;48.048;11.706;2022-08-01T17:28:06;1.50;;;1.40;;
5209;SDS011;2624;48.048;11.706;2022-08-01T17:33:10;1.67;;;1.57;;
5209;SDS011;2624;48.048;11.706;2022-08-01T17:38:12;2.30;;;1.23;;
5209;SDS011;2624;48.048;11.706;2022-08-01T17:43:14;1.33;;;1.10;;
5209;SDS011;2624;48.048;11.706;2022-08-01T17:48:17;1.60;;;1.50;;
5209;SDS011;2624;48.048;11.706;2022-08-01T17:53:18;1.07;;;1.03;;
5209;SDS011;2624;48.048;11.706;2022-08-01T17:58:22;3.47;;;1.47;;
5209;SDS011;2624;48.048;11.706;2022-08-01T18:03:26;2.03;;;1.20;;
5209;SDS011;2624;48.048;11.706;2022-08-01T18:08:27;1.30;;;0.97;;
5209;SDS011;2624;48.048;11.706;2022-08-01T18:13:29;1.20;;;1.20;;
5209;SDS011;2624;48.048;11.706;2022-08-01T18:18:33;1.30;;;1.20;;
5209;SDS011;2624;48.048;11.706;2022-08-01T18:23:35;1.17;;;1.13;;
5209;SDS011;2624;48.048;11.706;2022-08-01T18:28:37;6.07;;;1.60;;
5209;SDS011;2624;48.048;11.706;2022-08-01T18:33:41;1.43;;;1.10;;
5209;SDS011;2624;48.048;11.706;2022-08-01T18:38:43;1.70;;;1.37;;
5209;SDS011;2624;48.048;11.706;2022-08-01T18:43:44;1.10;;;1.10;;
5209;SDS011;2624;48.048;11.706;2022-08-01T18:48:48;2.83;;;1.30;;
5209;SDS011;2624;48.048;11.706;2022-08-01T18:53:50;1.30;;;1.20;;
5209;SDS011;2624;48.048;11.706;2022-08-01T18:58:54;1.23;;;1.13;;
5209;SDS011;2624;48.048;11.706;2022-08-01T19:03:57;2.00;;;1.40;;
5209;SDS011;2624;48.048;11.706;2022-08-01T19:08:59;1.40;;;1.30;;
5209;SDS011;2624;48.048;11.706;2022-08-01T19:14:02;3.03;;;1.60;;
5209;SDS011;2624;48.048;11.706;2022-08-01T19:19:05;1.40;;;1.30;;
5209;SDS011;2624;48.048;11.706;2022-08-01T19:24:08;1.17;;;1.17;;
5209;SDS011;2624;48.048;11.706;2022-08-01T19:29:20;2.30;;;1.80;;
5209;SDS011;2624;48.048;11.706;2022-08-01T19:34:25;3.37;;;2.00;;
5209;SDS011;2624;48.048;11.706;2022-08-01T19:39:27;3.23;;;1.20;;
5209;SDS011;2624;48.048;11.706;2022-08-01T19:44:29;1.57;;;1.47;;
5209;SDS011;2624;48.048;11.706;2022-08-01T19:49:32;1.43;;;1.33;;
5209;SDS011;2624;48.048;11.706;2022-08-01T19:54:34;1.40;;;1.40;;
5209;SDS011;2624;48.048;11.706;2022-08-01T19:59:38;1.67;;;1.50;;
5209;SDS011;2624;48.048;11.706;2022-08-01T20:04:42;2.30;;;1.20;;
5209;SDS011;2624;48.048;11.706;2022-08-01T20:09:44;2.03;;;1.53;;
5209;SDS011;2624;48.048;11.706;2022-08-01T20:14:49;2.90;;;1.43;;
5209;SDS011;2624;48.048;11.706;2022-08-01T20:19:54;1.60;;;1.50;;
5209;SDS011;2624;48.048;11.706;2022-08-01T20:24:57;1.53;;;1.40;;
5209;SDS011;2624;48.048;11.706;2022-08-01T20:29:59;2.73;;;1.90;;
5209;SDS011;2624;48.048;11.706;2022-08-01T20:35:03;2.30;;;1.20;;
5209;SDS011;2624;48.048;11.706;2022-08-01T20:40:06;1.30;;;1.20;;
5209;SDS011;2624;48.048;11.706;2022-08-01T20:45:11;2.80;;;1.87;;
5209;SDS011;2624;48.048;11.706;2022-08-01T20:50:17;5.70;;;3.10;;
5209;SDS011;2624;48.048;11.706;2022-08-01T20:55:40;1.87;;;1.77;;
5209;SDS011;2624;48.048;11.706;2022-08-01T21:00:44;2.20;;;1.70;;
5209;SDS011;2624;48.048;11.706;2022-08-01T21:05:53;3.43;;;1.90;;
5209;SDS011;2624;48.048;11.706;2022-08-01T21:11:00;3.13;;;1.93;;
5209;SDS011;2624;48.048;11.706;2022-08-01T21:16:03;1.90;;;1.80;;
5209;SDS011;2624;48.048;11.706;2022-08-01T21:21:12;3.20;;;1.70;;
5209;SDS011;2624;48.048;11.706;2022-08-01T21:26:16;1.80;;;1.70;;
5209;SDS011;2624;48.048;11.706;2022-08-01T21:31:20;1.63;;;1.57;;
5209;SDS011;2624;48.048;11.706;2022-08-01T21:36:23;1.70;;;1.60;;
5209;SDS011;2624;48.048;11.706;2022-08-01T21:41:27;1.77;;;1.30;;
5209;SDS011;2624;48.048;11.706;2022-08-01T21:46:30;2.70;;;1.90;;
5209;SDS011;2624;48.048;11.706;2022-08-01T21:51:37;2.70;;;1.73;;
5209;SDS011;2624;48.048;11.706;2022-08-01T21:56:46;2.93;;;1.40;;
5209;SDS011;2624;48.048;11.706;2022-08-01T22:01:57;1.37;;;1.30;;
5209;SDS011;2624;48.048;11.706;2022-08-01T22:07:03;1.60;;;1.60;;
5209;SDS011;2624;48.048;11.706;2022-08-01T22:12:09;1.27;;;1.27;;
5209;SDS011;2624;48.048;11.706;2022-08-01T22:17:12;0.80;;;0.80;;
5209;SDS011;2624;48.048;11.706;2022-08-01T22:22:19;1.83;;;1.73;;
5209;SDS011;2624;48.048;11.706;2022-08-01T22:27:21;6.83;;;1.43;;
5209;SDS011;2624;48.048;11.706;2022-08-01T22:32:27;1.03;;;0.93;;
5209;SDS011;2624;48.048;11.706;2022-08-01T22:37:33;1.07;;;1.07;;
5209;SDS011;2624;48.048;11.706;2022-08-01T22:42:36;1.00;;;1.00;;
5209;SDS011;2624;48.048;11.706;2022-08-01T22:47:45;0.90;;;0.90;;
5209;SDS011;2624;48.048;11.706;2022-08-01T22:52:56;0.80;;;0.80;;
5209;SDS011;2624;48.048;11.706;2022-08-01T22:58:07;0.90;;;0.90;;
5209;SDS011;2624;48.048;11.706;2022-08-01T23:03:13;0.97;;;0.97;;
5209;SDS011;2624;48.048;11.706;2022-08-01T23:08:16;1.30;;;1.30;;
5209;SDS011;2624;48.048;11.706;2022-08-01T23:13:21;1.00;;;1.00;;
5209;SDS011;2624;48.048;11.706;2022-08-01T23:18:23;1.00;;;1.00;;
5209;SDS011;2624;48.048;11.706;2022-08-01T23:23:27;1.07;;;0.97;;
5209;SDS011;2624;48.048;11.706;2022-08-01T23:28:30;0.73;;;0.73;;
5209;SDS011;2624;48.048;11.706;2022-08-01T23:33:32;2.87;;;0.90;;
5209;SDS011;2624;48.048;11.706;2022-08-01T23:38:35;0.90;;;0.90;;
5209;SDS011;2624;48.048;11.706;2022-08-01T23:43:37;1.47;;;1.00;;
5209;SDS011;2624;48.048;11.706;2022-08-01T23:48:40;0.97;;;0.97;;
5209;SDS011;2624;48.048;11.706;2022-08-01T23:53:43;0.90;;;0.90;;
5209;SDS011;2624;48.048;11.706;2022-08-01T23:58:45;0.60;;;0.60;;
